sensor_id;sensor_type;location;lat;lon;timestamp;pressure;altitude;pressure_sealevel;temperature;humidity
69402;BME280;56589;51.992;5.924;2023-07-20T00:01:10;100875.13;;;16.62;67.34
69402;BME280;56589;51.992;5.924;2023-07-20T00:03:38;100877.88;;;16.51;67.59
69402;BME280;56589;51.992;5.924;2023-07-20T00:06:04;100874.91;;;16.44;68.00
69402;BME280;56589;51.992;5.924;2023-07-20T00:08:30;100879.31;;;16.34;67.83
69402;BME280;56589;51.992;5.924;2023-07-20T00:10:56;100885.16;;;16.28;68.46
69402;BME280;56589;51.992;5.924;2023-07-20T00:13:22;100880.13;;;16.25;68.37
69402;BME280;56589;51.992;5.924;2023-07-20T00:15:48;100878.00;;;16.19;68.53
69402;BME280;56589;51.992;5.924;2023-07-20T00:18:14;100876.72;;;16.13;68.48
69402;BME280;56589;51.992;5.924;2023-07-20T00:20:43;100876.28;;;16.08;68.73
69402;BME280;56589;51.992;5.924;2023-07-20T00:23:09;100886.66;;;16.00;69.06
69402;BME280;56589;51.992;5.924;2023-07-20T00:25:35;100884.44;;;15.96;69.53
69402;BME280;56589;51.992;5.924;2023-07-20T00:28:01;100877.00;;;15.89;69.95
69402;BME280;56589;51.992;5.924;2023-07-20T00:30:27;100872.25;;;15.83;69.77
69402;BME280;56589;51.992;5.924;2023-07-20T00:32:53;100872.38;;;15.82;69.83
69402;BME280;56589;51.992;5.924;2023-07-20T00:35:18;100871.91;;;15.77;70.04
69402;BME280;56589;51.992;5.924;2023-07-20T00:37:47;100869.53;;;15.74;70.85
69402;BME280;56589;51.992;5.924;2023-07-20T00:40:13;100869.88;;;15.69;70.63
69402;BME280;56589;51.992;5.924;2023-07-20T00:42:39;100870.13;;;15.66;70.93
69402;BME280;56589;51.992;5.924;2023-07-20T00:45:06;100874.72;;;15.64;71.37
69402;BME280;56589;51.992;5.924;2023-07-20T00:47:32;100868.59;;;15.63;71.26
69402;BME280;56589;51.992;5.924;2023-07-20T00:49:58;100875.56;;;15.64;71.21
69402;BME280;56589;51.992;5.924;2023-07-20T00:52:25;100871.81;;;15.67;71.19
69402;BME280;56589;51.992;5.924;2023-07-20T00:54:56;100869.31;;;15.65;71.57
69402;BME280;56589;51.992;5.924;2023-07-20T00:57:24;100866.66;;;15.65;71.50
69402;BME280;56589;51.992;5.924;2023-07-20T00:59:50;100873.03;;;15.63;71.92
69402;BME280;56589;51.992;5.924;2023-07-20T01:02:16;100867.88;;;15.61;71.87
69402;BME280;56589;51.992;5.924;2023-07-20T01:04:42;100862.72;;;15.60;72.15
69402;BME280;56589;51.992;5.924;2023-07-20T01:07:12;100863.81;;;15.57;72.53
69402;BME280;56589;51.992;5.924;2023-07-20T01:09:47;100859.59;;;15.55;72.52
69402;BME280;56589;51.992;5.924;2023-07-20T01:12:25;100870.47;;;15.52;72.79
69402;BME280;56589;51.992;5.924;2023-07-20T01:14:53;100868.75;;;15.51;73.06
69402;BME280;56589;51.992;5.924;2023-07-20T01:17:20;100874.94;;;15.51;73.00
69402;BME280;56589;51.992;5.924;2023-07-20T01:19:46;100880.91;;;15.53;72.80
69402;BME280;56589;51.992;5.924;2023-07-20T01:25:37;100892.53;;;15.62;73.41
69402;BME280;56589;51.992;5.924;2023-07-20T01:28:35;100890.63;;;15.64;73.68
69402;BME280;56589;51.992;5.924;2023-07-20T01:31:21;100890.63;;;15.64;73.57
69402;BME280;56589;51.992;5.924;2023-07-20T01:33:53;100893.38;;;15.62;73.44
69402;BME280;56589;51.992;5.924;2023-07-20T01:36:23;100892.94;;;15.57;73.58
69402;BME280;56589;51.992;5.924;2023-07-20T01:38:52;100888.16;;;15.51;73.84
69402;BME280;56589;51.992;5.924;2023-07-20T01:41:18;100891.63;;;15.52;73.69
69402;BME280;56589;51.992;5.924;2023-07-20T01:43:44;100895.22;;;15.51;74.03
69402;BME280;56589;51.992;5.924;2023-07-20T01:46:11;100883.25;;;15.47;74.13
69402;BME280;56589;51.992;5.924;2023-07-20T01:48:39;100899.25;;;15.45;74.17
69402;BME280;56589;51.992;5.924;2023-07-20T01:51:05;100887.69;;;15.46;74.42
69402;BME280;56589;51.992;5.924;2023-07-20T01:53:31;100890.34;;;15.46;74.38
69402;BME280;56589;51.992;5.924;2023-07-20T01:55:57;100892.38;;;15.43;74.11
69402;BME280;56589;51.992;5.924;2023-07-20T01:58:23;100891.53;;;15.42;74.25
69402;BME280;56589;51.992;5.924;2023-07-20T02:00:49;100892.88;;;15.36;74.39
69402;BME280;56589;51.992;5.924;2023-07-20T02:03:15;100882.81;;;15.30;74.30
69402;BME280;56589;51.992;5.924;2023-07-20T02:05:45;100884.28;;;15.23;74.96
69402;BME280;56589;51.992;5.924;2023-07-20T02:08:11;100893.44;;;15.19;74.47
69402;BME280;56589;51.992;5.924;2023-07-20T02:10:36;100895.50;;;15.16;74.81
69402;BME280;56589;51.992;5.924;2023-07-20T02:13:03;100887.66;;;15.14;75.05
69402;BME280;56589;51.992;5.924;2023-07-20T02:15:29;100891.28;;;15.13;75.27
69402;BME280;56589;51.992;5.924;2023-07-20T02:17:55;100899.63;;;15.08;75.07
69402;BME280;56589;51.992;5.924;2023-07-20T02:20:20;100900.69;;;15.06;75.37
69402;BME280;56589;51.992;5.924;2023-07-20T02:22:49;100896.50;;;15.03;75.60
69402;BME280;56589;51.992;5.924;2023-07-20T02:25:15;100898.31;;;15.03;75.20
69402;BME280;56589;51.992;5.924;2023-07-20T02:27:41;100895.66;;;15.03;75.51
69402;BME280;56589;51.992;5.924;2023-07-20T02:30:07;100897.56;;;15.01;75.42
69402;BME280;56589;51.992;5.924;2023-07-20T02:32:34;100901.06;;;15.01;74.85
69402;BME280;56589;51.992;5.924;2023-07-20T02:34:59;100903.25;;;14.96;74.92
69402;BME280;56589;51.992;5.924;2023-07-20T02:37:25;100890.41;;;14.92;75.24
69402;BME280;56589;51.992;5.924;2023-07-20T02:39:54;100896.66;;;14.91;75.32
69402;BME280;56589;51.992;5.924;2023-07-20T02:42:20;100891.47;;;14.89;74.98
69402;BME280;56589;51.992;5.924;2023-07-20T02:44:46;100900.22;;;14.90;75.24
69402;BME280;56589;51.992;5.924;2023-07-20T02:47:12;100906.75;;;14.85;75.16
69402;BME280;56589;51.992;5.924;2023-07-20T02:49:38;100899.88;;;14.83;75.26
69402;BME280;56589;51.992;5.924;2023-07-20T02:52:04;100902.19;;;14.76;74.79
69402;BME280;56589;51.992;5.924;2023-07-20T02:54:30;100910.50;;;14.72;74.81
69402;BME280;56589;51.992;5.924;2023-07-20T02:56:59;100908.34;;;14.66;75.12
69402;BME280;56589;51.992;5.924;2023-07-20T02:59:25;100915.66;;;14.62;75.30
69402;BME280;56589;51.992;5.924;2023-07-20T03:01:51;100915.75;;;14.61;75.43
69402;BME280;56589;51.992;5.924;2023-07-20T03:04:16;100922.00;;;14.59;75.69
69402;BME280;56589;51.992;5.924;2023-07-20T03:06:42;100929.31;;;14.56;75.39
69402;BME280;56589;51.992;5.924;2023-07-20T03:09:08;100934.00;;;14.52;75.32
69402;BME280;56589;51.992;5.924;2023-07-20T03:11:34;100923.19;;;14.44;75.59
69402;BME280;56589;51.992;5.924;2023-07-20T03:14:03;100925.34;;;14.39;76.11
69402;BME280;56589;51.992;5.924;2023-07-20T03:16:28;100936.41;;;14.33;76.28
69402;BME280;56589;51.992;5.924;2023-07-20T03:18:54;100931.25;;;14.31;76.05
69402;BME280;56589;51.992;5.924;2023-07-20T03:21:20;100937.59;;;14.29;76.40
69402;BME280;56589;51.992;5.924;2023-07-20T03:23:46;100937.00;;;14.25;76.29
69402;BME280;56589;51.992;5.924;2023-07-20T03:26:12;100936.38;;;14.22;76.13
69402;BME280;56589;51.992;5.924;2023-07-20T03:28:38;100936.50;;;14.20;76.43
69402;BME280;56589;51.992;5.924;2023-07-20T03:31:06;100933.03;;;14.20;76.53
69402;BME280;56589;51.992;5.924;2023-07-20T03:33:33;100938.31;;;14.20;76.57
69402;BME280;56589;51.992;5.924;2023-07-20T03:35:59;100941.66;;;14.22;76.18
69402;BME280;56589;51.992;5.924;2023-07-20T03:38:26;100934.69;;;14.21;76.76
69402;BME280;56589;51.992;5.924;2023-07-20T03:40:54;100929.41;;;14.21;76.63
69402;BME280;56589;51.992;5.924;2023-07-20T03:43:21;100938.31;;;14.20;76.50
69402;BME280;56589;51.992;5.924;2023-07-20T03:45:48;100931.09;;;14.22;76.68
69402;BME280;56589;51.992;5.924;2023-07-20T03:48:19;100933.84;;;14.20;76.21
69402;BME280;56589;51.992;5.924;2023-07-20T03:50:47;100936.63;;;14.19;76.54
69402;BME280;56589;51.992;5.924;2023-07-20T03:53:14;100929.66;;;14.18;76.40
69402;BME280;56589;51.992;5.924;2023-07-20T03:55:41;100933.97;;;14.19;76.62
69402;BME280;56589;51.992;5.924;2023-07-20T03:58:09;100940.09;;;14.19;76.75
69402;BME280;56589;51.992;5.924;2023-07-20T04:00:35;100934.69;;;14.21;76.53
69402;BME280;56589;51.992;5.924;2023-07-20T04:03:01;100939.13;;;14.20;76.46
69402;BME280;56589;51.992;5.924;2023-07-20T04:05:29;100939.97;;;14.21;76.48
69402;BME280;56589;51.992;5.924;2023-07-20T04:07:55;100947.06;;;14.20;76.18
69402;BME280;56589;51.992;5.924;2023-07-20T04:10:21;100943.59;;;14.20;76.43
69402;BME280;56589;51.992;5.924;2023-07-20T04:12:47;100948.03;;;14.19;76.72
69402;BME280;56589;51.992;5.924;2023-07-20T04:15:13;100946.34;;;14.18;76.56
69402;BME280;56589;51.992;5.924;2023-07-20T04:17:39;100949.00;;;14.18;77.15
69402;BME280;56589;51.992;5.924;2023-07-20T04:20:06;100948.16;;;14.29;77.25
69402;BME280;56589;51.992;5.924;2023-07-20T04:22:35;100956.47;;;14.58;77.50
69402;BME280;56589;51.992;5.924;2023-07-20T04:25:02;100947.25;;;14.86;77.13
69402;BME280;56589;51.992;5.924;2023-07-20T04:27:29;100949.47;;;15.02;76.43
69402;BME280;56589;51.992;5.924;2023-07-20T04:29:55;100948.41;;;15.04;75.77
69402;BME280;56589;51.992;5.924;2023-07-20T04:32:21;100957.66;;;15.10;75.90
69402;BME280;56589;51.992;5.924;2023-07-20T04:34:47;100954.44;;;15.38;76.69
69402;BME280;56589;51.992;5.924;2023-07-20T04:37:13;100958.66;;;15.84;75.94
69402;BME280;56589;51.992;5.924;2023-07-20T04:39:41;100952.03;;;16.41;75.71
69402;BME280;56589;51.992;5.924;2023-07-20T04:42:07;100955.94;;;17.08;74.71
69402;BME280;56589;51.992;5.924;2023-07-20T04:44:33;100967.19;;;17.70;73.30
69402;BME280;56589;51.992;5.924;2023-07-20T04:46:59;100975.81;;;18.30;72.29
69402;BME280;56589;51.992;5.924;2023-07-20T04:49:25;100977.44;;;18.88;70.53
69402;BME280;56589;51.992;5.924;2023-07-20T04:51:51;100978.53;;;19.40;68.83
69402;BME280;56589;51.992;5.924;2023-07-20T04:54:17;100977.44;;;19.78;66.66
69402;BME280;56589;51.992;5.924;2023-07-20T04:56:45;100980.34;;;20.11;65.78
69402;BME280;56589;51.992;5.924;2023-07-20T04:59:11;100980.63;;;20.43;65.24
69402;BME280;56589;51.992;5.924;2023-07-20T05:01:37;100983.34;;;20.86;64.45
69402;BME280;56589;51.992;5.924;2023-07-20T05:04:03;100983.00;;;21.31;63.31
69402;BME280;56589;51.992;5.924;2023-07-20T05:06:29;100987.06;;;21.76;61.94
69402;BME280;56589;51.992;5.924;2023-07-20T05:08:55;100980.94;;;22.16;61.35
69402;BME280;56589;51.992;5.924;2023-07-20T05:11:21;100982.38;;;22.51;59.25
69402;BME280;56589;51.992;5.924;2023-07-20T05:13:49;100981.31;;;22.77;58.38
69402;BME280;56589;51.992;5.924;2023-07-20T05:16:15;100983.88;;;23.01;56.89
69402;BME280;56589;51.992;5.924;2023-07-20T05:18:41;100979.41;;;23.25;56.27
69402;BME280;56589;51.992;5.924;2023-07-20T05:21:07;100982.63;;;23.51;55.05
69402;BME280;56589;51.992;5.924;2023-07-20T05:23:33;100991.13;;;23.78;53.88
69402;BME280;56589;51.992;5.924;2023-07-20T05:25:59;100991.13;;;24.01;53.88
69402;BME280;56589;51.992;5.924;2023-07-20T05:28:26;100986.59;;;24.24;52.69
69402;BME280;56589;51.992;5.924;2023-07-20T05:30:55;100986.97;;;24.36;52.10
69402;BME280;56589;51.992;5.924;2023-07-20T05:33:21;100993.25;;;24.58;51.89
69402;BME280;56589;51.992;5.924;2023-07-20T05:35:47;100999.59;;;24.80;51.29
69402;BME280;56589;51.992;5.924;2023-07-20T05:38:13;100998.09;;;24.92;50.68
69402;BME280;56589;51.992;5.924;2023-07-20T05:40:41;101001.66;;;25.14;49.95
69402;BME280;56589;51.992;5.924;2023-07-20T05:43:07;101009.41;;;25.38;49.46
69402;BME280;56589;51.992;5.924;2023-07-20T05:45:33;101007.97;;;25.57;48.60
69402;BME280;56589;51.992;5.924;2023-07-20T05:48:01;101019.88;;;25.69;47.45
69402;BME280;56589;51.992;5.924;2023-07-20T05:50:27;101017.13;;;25.63;47.61
69402;BME280;56589;51.992;5.924;2023-07-20T05:52:54;101007.59;;;25.82;46.36
69402;BME280;56589;51.992;5.924;2023-07-20T05:55:20;101006.72;;;25.96;45.75
69402;BME280;56589;51.992;5.924;2023-07-20T05:57:46;101010.16;;;26.11;44.36
69402;BME280;56589;51.992;5.924;2023-07-20T06:00:13;101000.06;;;26.13;44.20
69402;BME280;56589;51.992;5.924;2023-07-20T06:02:40;101002.00;;;26.04;43.72
69402;BME280;56589;51.992;5.924;2023-07-20T06:05:09;101001.94;;;25.98;43.33
69402;BME280;56589;51.992;5.924;2023-07-20T06:07:35;101010.28;;;26.03;43.22
69402;BME280;56589;51.992;5.924;2023-07-20T06:10:01;101015.28;;;26.06;42.92
69402;BME280;56589;51.992;5.924;2023-07-20T06:12:27;101012.22;;;26.09;42.83
69402;BME280;56589;51.992;5.924;2023-07-20T06:14:53;101014.84;;;26.30;42.75
69402;BME280;56589;51.992;5.924;2023-07-20T06:17:19;101019.41;;;26.58;42.03
69402;BME280;56589;51.992;5.924;2023-07-20T06:19:45;101023.69;;;26.80;41.17
69402;BME280;56589;51.992;5.924;2023-07-20T06:22:14;101027.59;;;27.06;41.18
69402;BME280;56589;51.992;5.924;2023-07-20T06:24:40;101024.34;;;27.30;40.58
69402;BME280;56589;51.992;5.924;2023-07-20T06:27:06;101029.38;;;27.33;39.56
69402;BME280;56589;51.992;5.924;2023-07-20T06:29:31;101031.03;;;27.34;39.12
69402;BME280;56589;51.992;5.924;2023-07-20T06:31:57;101027.72;;;27.39;38.72
69402;BME280;56589;51.992;5.924;2023-07-20T06:34:23;101028.47;;;27.26;38.71
69402;BME280;56589;51.992;5.924;2023-07-20T06:36:49;101030.31;;;27.13;38.42
69402;BME280;56589;51.992;5.924;2023-07-20T06:39:17;101029.63;;;27.04;38.30
69402;BME280;56589;51.992;5.924;2023-07-20T06:41:43;101024.41;;;26.96;38.43
69402;BME280;56589;51.992;5.924;2023-07-20T06:44:09;101030.25;;;26.99;38.48
69402;BME280;56589;51.992;5.924;2023-07-20T06:46:35;101021.78;;;27.09;38.55
69402;BME280;56589;51.992;5.924;2023-07-20T06:49:01;101027.59;;;27.13;38.54
69402;BME280;56589;51.992;5.924;2023-07-20T06:51:26;101025.38;;;27.29;38.26
69402;BME280;56589;51.992;5.924;2023-07-20T06:53:52;101038.16;;;27.55;37.33
69402;BME280;56589;51.992;5.924;2023-07-20T06:56:21;101039.63;;;27.78;37.39
69402;BME280;56589;51.992;5.924;2023-07-20T06:58:47;101042.63;;;28.16;37.18
69402;BME280;56589;51.992;5.924;2023-07-20T07:01:13;101042.19;;;28.32;36.28
69402;BME280;56589;51.992;5.924;2023-07-20T07:03:39;101042.78;;;28.28;35.45
69402;BME280;56589;51.992;5.924;2023-07-20T07:06:05;101036.78;;;28.26;35.11
69402;BME280;56589;51.992;5.924;2023-07-20T07:08:31;101034.50;;;28.29;35.53
69402;BME280;56589;51.992;5.924;2023-07-20T07:10:56;101038.03;;;28.43;35.14
69402;BME280;56589;51.992;5.924;2023-07-20T07:13:25;101046.56;;;28.47;34.50
69402;BME280;56589;51.992;5.924;2023-07-20T07:15:51;101039.47;;;28.26;34.35
69402;BME280;56589;51.992;5.924;2023-07-20T07:18:17;101050.72;;;28.16;34.71
69402;BME280;56589;51.992;5.924;2023-07-20T07:20:50;101053.59;;;28.21;34.22
69402;BME280;56589;51.992;5.924;2023-07-20T07:23:16;101052.16;;;28.38;34.61
69402;BME280;56589;51.992;5.924;2023-07-20T07:25:42;101058.41;;;28.65;34.06
69402;BME280;56589;51.992;5.924;2023-07-20T07:28:08;101059.84;;;28.68;33.83
69402;BME280;56589;51.992;5.924;2023-07-20T07:30:36;101057.53;;;28.38;33.65
69402;BME280;56589;51.992;5.924;2023-07-20T07:33:03;101054.63;;;27.94;33.39
69402;BME280;56589;51.992;5.924;2023-07-20T07:35:28;101051.81;;;27.54;34.28
69402;BME280;56589;51.992;5.924;2023-07-20T07:37:54;101047.03;;;27.36;34.48
69402;BME280;56589;51.992;5.924;2023-07-20T07:40:20;101051.75;;;27.34;35.18
69402;BME280;56589;51.992;5.924;2023-07-20T07:42:46;101059.75;;;27.62;34.85
69402;BME280;56589;51.992;5.924;2023-07-20T07:45:12;101064.97;;;27.83;34.55
69402;BME280;56589;51.992;5.924;2023-07-20T07:47:40;101059.44;;;28.05;34.42
69402;BME280;56589;51.992;5.924;2023-07-20T07:50:07;101057.16;;;28.35;34.01
69402;BME280;56589;51.992;5.924;2023-07-20T07:52:33;101058.16;;;28.27;33.63
69402;BME280;56589;51.992;5.924;2023-07-20T07:54:59;101050.63;;;27.76;34.46
69402;BME280;56589;51.992;5.924;2023-07-20T07:57:24;101054.47;;;27.34;35.08
69402;BME280;56589;51.992;5.924;2023-07-20T07:59:50;101051.81;;;26.99;34.78
69402;BME280;56589;51.992;5.924;2023-07-20T08:02:16;101052.16;;;26.90;35.22
69402;BME280;56589;51.992;5.924;2023-07-20T08:04:45;101055.53;;;27.05;34.89
69402;BME280;56589;51.992;5.924;2023-07-20T08:07:11;101055.78;;;27.10;34.33
69402;BME280;56589;51.992;5.924;2023-07-20T08:09:36;101054.75;;;27.11;34.64
69402;BME280;56589;51.992;5.924;2023-07-20T08:12:03;101055.06;;;26.88;35.22
69402;BME280;56589;51.992;5.924;2023-07-20T08:14:30;101058.00;;;26.93;34.78
69402;BME280;56589;51.992;5.924;2023-07-20T08:16:55;101058.16;;;26.57;34.47
69402;BME280;56589;51.992;5.924;2023-07-20T08:19:21;101058.41;;;25.91;35.12
69402;BME280;56589;51.992;5.924;2023-07-20T08:21:50;101064.78;;;25.18;35.35
69402;BME280;56589;51.992;5.924;2023-07-20T08:24:16;101057.72;;;24.72;36.76
69402;BME280;56589;51.992;5.924;2023-07-20T08:26:41;101060.34;;;24.81;37.27
69402;BME280;56589;51.992;5.924;2023-07-20T08:29:07;101067.66;;;25.02;37.73
69402;BME280;56589;51.992;5.924;2023-07-20T08:31:33;101051.78;;;25.36;37.34
69402;BME280;56589;51.992;5.924;2023-07-20T08:33:59;101060.91;;;25.71;36.63
69402;BME280;56589;51.992;5.924;2023-07-20T08:36:25;101063.53;;;25.50;35.64
69402;BME280;56589;51.992;5.924;2023-07-20T08:38:53;101060.53;;;24.94;35.49
69402;BME280;56589;51.992;5.924;2023-07-20T08:41:19;101069.88;;;24.31;35.71
69402;BME280;56589;51.992;5.924;2023-07-20T08:43:46;101069.16;;;23.68;36.69
69402;BME280;56589;51.992;5.924;2023-07-20T08:46:13;101069.81;;;23.31;37.02
69402;BME280;56589;51.992;5.924;2023-07-20T08:48:42;101064.72;;;23.05;37.72
69402;BME280;56589;51.992;5.924;2023-07-20T08:51:10;101069.41;;;23.03;38.34
69402;BME280;56589;51.992;5.924;2023-07-20T08:53:36;101069.88;;;23.54;37.63
69402;BME280;56589;51.992;5.924;2023-07-20T08:56:06;101078.16;;;24.21;37.05
69402;BME280;56589;51.992;5.924;2023-07-20T08:58:35;101061.06;;;24.89;37.34
69402;BME280;56589;51.992;5.924;2023-07-20T09:01:02;101066.28;;;25.71;36.12
69402;BME280;56589;51.992;5.924;2023-07-20T09:03:28;101063.03;;;26.47;35.77
69402;BME280;56589;51.992;5.924;2023-07-20T09:05:54;101067.59;;;27.09;35.19
69402;BME280;56589;51.992;5.924;2023-07-20T09:08:20;101061.19;;;27.71;34.50
69402;BME280;56589;51.992;5.924;2023-07-20T09:10:46;101064.00;;;28.11;33.28
69402;BME280;56589;51.992;5.924;2023-07-20T09:13:16;101061.69;;;28.21;32.54
69402;BME280;56589;51.992;5.924;2023-07-20T09:15:45;101066.50;;;28.12;32.39
69402;BME280;56589;51.992;5.924;2023-07-20T09:18:12;101059.66;;;28.23;31.87
69402;BME280;56589;51.992;5.924;2023-07-20T09:20:48;101057.34;;;28.20;31.87
69402;BME280;56589;51.992;5.924;2023-07-20T09:23:14;101062.25;;;27.77;31.55
69402;BME280;56589;51.992;5.924;2023-07-20T09:25:41;101053.25;;;27.02;32.45
69402;BME280;56589;51.992;5.924;2023-07-20T09:28:06;101058.09;;;26.22;32.87
69402;BME280;56589;51.992;5.924;2023-07-20T09:30:35;101053.81;;;25.49;33.27
69402;BME280;56589;51.992;5.924;2023-07-20T09:33:01;101053.22;;;24.88;33.58
69402;BME280;56589;51.992;5.924;2023-07-20T09:35:27;101058.00;;;24.25;34.88
69402;BME280;56589;51.992;5.924;2023-07-20T09:37:58;101062.00;;;23.83;35.59
69402;BME280;56589;51.992;5.924;2023-07-20T09:40:26;101052.25;;;23.59;35.73
69402;BME280;56589;51.992;5.924;2023-07-20T09:42:53;101053.72;;;23.39;36.15
69402;BME280;56589;51.992;5.924;2023-07-20T09:45:20;101048.22;;;23.24;36.43
69402;BME280;56589;51.992;5.924;2023-07-20T09:47:48;101046.41;;;23.17;36.27
69402;BME280;56589;51.992;5.924;2023-07-20T09:50:14;101047.63;;;23.14;36.75
69402;BME280;56589;51.992;5.924;2023-07-20T09:52:41;101037.72;;;23.54;36.71
69402;BME280;56589;51.992;5.924;2023-07-20T09:55:08;101045.06;;;23.83;36.37
69402;BME280;56589;51.992;5.924;2023-07-20T09:57:34;101043.34;;;23.90;36.30
69402;BME280;56589;51.992;5.924;2023-07-20T10:00:01;101040.78;;;23.97;35.92
69402;BME280;56589;51.992;5.924;2023-07-20T10:02:32;101044.69;;;23.86;35.58
69402;BME280;56589;51.992;5.924;2023-07-20T10:05:03;101042.03;;;23.63;36.12
69402;BME280;56589;51.992;5.924;2023-07-20T10:07:30;101042.84;;;23.32;36.75
69402;BME280;56589;51.992;5.924;2023-07-20T10:09:59;101043.47;;;23.03;37.26
69402;BME280;56589;51.992;5.924;2023-07-20T10:12:27;101041.53;;;22.81;37.86
69402;BME280;56589;51.992;5.924;2023-07-20T10:15:01;101036.69;;;22.68;38.13
69402;BME280;56589;51.992;5.924;2023-07-20T10:17:37;101039.91;;;22.64;37.70
69402;BME280;56589;51.992;5.924;2023-07-20T10:20:12;101036.84;;;22.83;38.21
69402;BME280;56589;51.992;5.924;2023-07-20T10:22:39;101041.06;;;23.17;37.90
69402;BME280;56589;51.992;5.924;2023-07-20T10:25:06;101037.28;;;23.42;38.02
69402;BME280;56589;51.992;5.924;2023-07-20T10:27:33;101041.19;;;23.62;37.85
69402;BME280;56589;51.992;5.924;2023-07-20T10:29:59;101038.56;;;23.77;37.34
69402;BME280;56589;51.992;5.924;2023-07-20T10:32:25;101038.19;;;24.03;38.38
69402;BME280;56589;51.992;5.924;2023-07-20T10:34:52;101035.25;;;24.74;37.83
69402;BME280;56589;51.992;5.924;2023-07-20T10:37:51;101039.13;;;25.51;36.14
69402;BME280;56589;51.992;5.924;2023-07-20T10:40:37;101036.56;;;26.01;36.04
69402;BME280;56589;51.992;5.924;2023-07-20T10:43:05;101034.53;;;26.31;35.59
69402;BME280;56589;51.992;5.924;2023-07-20T10:45:36;101036.94;;;26.47;34.82
69402;BME280;56589;51.992;5.924;2023-07-20T10:48:09;101032.13;;;26.43;34.80
69402;BME280;56589;51.992;5.924;2023-07-20T10:50:39;101018.53;;;26.23;35.24
69402;BME280;56589;51.992;5.924;2023-07-20T10:53:13;101023.81;;;26.10;34.26
69402;BME280;56589;51.992;5.924;2023-07-20T10:55:41;101031.16;;;25.79;34.59
69402;BME280;56589;51.992;5.924;2023-07-20T10:58:08;101026.50;;;25.67;35.42
69402;BME280;56589;51.992;5.924;2023-07-20T11:00:36;101027.19;;;25.75;35.35
69402;BME280;56589;51.992;5.924;2023-07-20T11:03:02;101025.22;;;25.84;34.80
69402;BME280;56589;51.992;5.924;2023-07-20T11:05:38;101023.34;;;25.63;33.81
69402;BME280;56589;51.992;5.924;2023-07-20T11:08:06;101023.59;;;25.32;34.11
69402;BME280;56589;51.992;5.924;2023-07-20T11:10:38;101016.53;;;25.10;34.55
69402;BME280;56589;51.992;5.924;2023-07-20T11:13:20;101016.25;;;24.90;35.16
69402;BME280;56589;51.992;5.924;2023-07-20T11:15:52;101016.16;;;24.83;35.50
69402;BME280;56589;51.992;5.924;2023-07-20T11:18:27;101021.91;;;24.80;35.42
69402;BME280;56589;51.992;5.924;2023-07-20T11:20:54;101015.13;;;24.69;35.77
69402;BME280;56589;51.992;5.924;2023-07-20T11:23:23;101012.34;;;24.48;35.40
69402;BME280;56589;51.992;5.924;2023-07-20T11:25:49;101003.81;;;24.30;35.97
69402;BME280;56589;51.992;5.924;2023-07-20T11:28:15;101018.94;;;24.23;36.00
69402;BME280;56589;51.992;5.924;2023-07-20T11:30:41;101010.69;;;24.09;36.66
69402;BME280;56589;51.992;5.924;2023-07-20T11:33:08;101009.78;;;24.17;36.22
69402;BME280;56589;51.992;5.924;2023-07-20T11:35:35;101002.31;;;24.27;36.75
69402;BME280;56589;51.992;5.924;2023-07-20T11:38:07;101001.03;;;24.53;36.53
69402;BME280;56589;51.992;5.924;2023-07-20T11:40:35;100992.72;;;24.77;35.88
69402;BME280;56589;51.992;5.924;2023-07-20T11:43:02;100987.56;;;24.76;36.11
69402;BME280;56589;51.992;5.924;2023-07-20T11:45:28;100988.53;;;24.45;35.98
69402;BME280;56589;51.992;5.924;2023-07-20T11:47:54;100998.09;;;24.10;36.61
69402;BME280;56589;51.992;5.924;2023-07-20T11:50:20;100996.31;;;23.79;36.96
69402;BME280;56589;51.992;5.924;2023-07-20T11:52:46;100987.59;;;23.62;37.32
69402;BME280;56589;51.992;5.924;2023-07-20T11:55:12;100982.44;;;23.53;37.69
69402;BME280;56589;51.992;5.924;2023-07-20T11:57:41;100992.84;;;23.48;37.70
69402;BME280;56589;51.992;5.924;2023-07-20T12:00:08;100993.03;;;23.46;37.47
69402;BME280;56589;51.992;5.924;2023-07-20T12:02:35;100990.06;;;23.41;37.85
69402;BME280;56589;51.992;5.924;2023-07-20T12:05:03;100985.41;;;23.35;37.91
69402;BME280;56589;51.992;5.924;2023-07-20T12:07:34;100985.56;;;23.33;38.58
69402;BME280;56589;51.992;5.924;2023-07-20T12:10:06;100987.47;;;23.56;38.49
69402;BME280;56589;51.992;5.924;2023-07-20T12:12:33;100983.19;;;23.84;38.13
69402;BME280;56589;51.992;5.924;2023-07-20T12:15:20;100981.22;;;24.24;38.25
69402;BME280;56589;51.992;5.924;2023-07-20T12:17:50;100983.63;;;24.63;38.04
69402;BME280;56589;51.992;5.924;2023-07-20T12:20:28;100979.66;;;24.89;36.92
69402;BME280;56589;51.992;5.924;2023-07-20T12:23:00;100977.56;;;24.84;36.97
69402;BME280;56589;51.992;5.924;2023-07-20T12:25:36;100976.50;;;24.70;36.69
69402;BME280;56589;51.992;5.924;2023-07-20T12:28:07;100972.16;;;24.55;36.44
69402;BME280;56589;51.992;5.924;2023-07-20T12:30:36;100972.44;;;24.45;37.24
69402;BME280;56589;51.992;5.924;2023-07-20T12:33:03;100968.66;;;24.54;36.71
69402;BME280;56589;51.992;5.924;2023-07-20T12:35:29;100965.97;;;24.54;36.95
69402;BME280;56589;51.992;5.924;2023-07-20T12:37:55;100966.97;;;24.68;37.35
69402;BME280;56589;51.992;5.924;2023-07-20T12:40:24;100972.50;;;24.96;37.06
69402;BME280;56589;51.992;5.924;2023-07-20T12:42:50;100960.34;;;25.15;37.05
69402;BME280;56589;51.992;5.924;2023-07-20T12:45:15;100963.69;;;25.38;36.46
69402;BME280;56589;51.992;5.924;2023-07-20T12:47:44;100964.44;;;25.68;35.87
69402;BME280;56589;51.992;5.924;2023-07-20T12:50:10;100964.69;;;25.95;35.04
69402;BME280;56589;51.992;5.924;2023-07-20T12:52:36;100961.81;;;25.75;34.45
69402;BME280;56589;51.992;5.924;2023-07-20T12:55:04;100972.44;;;25.40;34.60